X  Close Metar Aviation Weather Data     KAST Astoria Regional Airport
Temperature
57°F Temperature
55°F Dewpoint
94% Humidity



Wind
3 MPH
5 KM/H
1 M/S
3 KTS



230°
SW
Current Conditions

Partly Cloudy Partly Cloudy
Pressure 1015.92 (hPa) - 30 (inHg)
Visibility 9.9 (mile) - 16 (km)
Airport
Airport-code KAST

Location: Astoria Regional Airport
Distance: 20 (mi)

Metar:
KAST 191155Z AUTO 23003KT 10SM FEW008 BKN015 OVC027 14/13 A3000 RMK AO2 SLP158 70002 T01440133 10150 20144 51001

Time: 09-19-2020 04:55 PDT